sensor_id;sensor_type;location;lat;lon;timestamp;P1;durP1;ratioP1;P2;durP2;ratioP2
20535;SDS011;10426;49.420;8.390;2022-07-06T00:02:03;1.90;;;1.80;;
20535;SDS011;10426;49.420;8.390;2022-07-06T00:04:29;2.28;;;1.83;;
20535;SDS011;10426;49.420;8.390;2022-07-06T00:06:56;2.17;;;1.90;;
20535;SDS011;10426;49.420;8.390;2022-07-06T00:09:24;2.10;;;2.00;;
20535;SDS011;10426;49.420;8.390;2022-07-06T00:11:50;3.30;;;2.00;;
20535;SDS011;10426;49.420;8.390;2022-07-06T00:14:18;2.88;;;1.85;;
20535;SDS011;10426;49.420;8.390;2022-07-06T00:16:45;2.60;;;2.10;;
20535;SDS011;10426;49.420;8.390;2022-07-06T00:19:12;2.15;;;1.92;;
20535;SDS011;10426;49.420;8.390;2022-07-06T00:21:39;2.13;;;1.92;;
20535;SDS011;10426;49.420;8.390;2022-07-06T00:24:05;2.20;;;2.00;;
20535;SDS011;10426;49.420;8.390;2022-07-06T00:26:32;3.90;;;2.10;;
20535;SDS011;10426;49.420;8.390;2022-07-06T00:28:59;4.35;;;2.22;;
20535;SDS011;10426;49.420;8.390;2022-07-06T00:31:27;3.80;;;2.20;;
20535;SDS011;10426;49.420;8.390;2022-07-06T00:33:54;4.80;;;2.00;;
20535;SDS011;10426;49.420;8.390;2022-07-06T00:36:20;3.72;;;2.35;;
20535;SDS011;10426;49.420;8.390;2022-07-06T00:38:47;2.53;;;2.17;;
20535;SDS011;10426;49.420;8.390;2022-07-06T00:41:13;4.85;;;2.17;;
20535;SDS011;10426;49.420;8.390;2022-07-06T00:43:46;2.57;;;2.17;;
20535;SDS011;10426;49.420;8.390;2022-07-06T00:46:13;5.70;;;2.20;;
20535;SDS011;10426;49.420;8.390;2022-07-06T00:48:41;2.63;;;2.10;;
20535;SDS011;10426;49.420;8.390;2022-07-06T00:51:08;2.42;;;2.10;;
20535;SDS011;10426;49.420;8.390;2022-07-06T00:53:34;4.13;;;2.20;;
20535;SDS011;10426;49.420;8.390;2022-07-06T00:56:01;3.88;;;1.95;;
20535;SDS011;10426;49.420;8.390;2022-07-06T00:58:28;4.13;;;2.00;;
20535;SDS011;10426;49.420;8.390;2022-07-06T01:00:55;3.28;;;2.10;;
20535;SDS011;10426;49.420;8.390;2022-07-06T01:03:21;5.32;;;1.95;;
20535;SDS011;10426;49.420;8.390;2022-07-06T01:05:49;4.95;;;2.17;;
20535;SDS011;10426;49.420;8.390;2022-07-06T01:08:16;2.15;;;1.95;;
20535;SDS011;10426;49.420;8.390;2022-07-06T01:10:43;3.30;;;1.90;;
20535;SDS011;10426;49.420;8.390;2022-07-06T01:13:10;2.75;;;1.80;;
20535;SDS011;10426;49.420;8.390;2022-07-06T01:15:36;3.10;;;1.95;;
20535;SDS011;10426;49.420;8.390;2022-07-06T01:18:03;1.70;;;1.60;;
20535;SDS011;10426;49.420;8.390;2022-07-06T01:20:31;2.40;;;2.10;;
20535;SDS011;10426;49.420;8.390;2022-07-06T01:22:59;3.90;;;2.10;;
20535;SDS011;10426;49.420;8.390;2022-07-06T01:25:25;3.37;;;2.30;;
20535;SDS011;10426;49.420;8.390;2022-07-06T01:27:52;3.80;;;2.03;;
20535;SDS011;10426;49.420;8.390;2022-07-06T01:30:19;2.25;;;2.00;;
20535;SDS011;10426;49.420;8.390;2022-07-06T01:32:46;4.20;;;2.00;;
20535;SDS011;10426;49.420;8.390;2022-07-06T01:35:13;2.33;;;2.00;;
20535;SDS011;10426;49.420;8.390;2022-07-06T01:37:41;3.10;;;1.88;;
20535;SDS011;10426;49.420;8.390;2022-07-06T01:40:09;3.17;;;1.60;;
20535;SDS011;10426;49.420;8.390;2022-07-06T01:42:36;2.00;;;1.75;;
20535;SDS011;10426;49.420;8.390;2022-07-06T01:45:04;2.60;;;1.75;;
20535;SDS011;10426;49.420;8.390;2022-07-06T01:47:31;2.20;;;1.80;;
20535;SDS011;10426;49.420;8.390;2022-07-06T01:49:58;2.50;;;1.90;;
20535;SDS011;10426;49.420;8.390;2022-07-06T01:52:25;3.60;;;1.80;;
20535;SDS011;10426;49.420;8.390;2022-07-06T01:54:53;1.83;;;1.70;;
20535;SDS011;10426;49.420;8.390;2022-07-06T01:57:20;2.27;;;1.90;;
20535;SDS011;10426;49.420;8.390;2022-07-06T01:59:46;1.90;;;1.80;;
20535;SDS011;10426;49.420;8.390;2022-07-06T02:02:13;2.92;;;1.90;;
20535;SDS011;10426;49.420;8.390;2022-07-06T02:04:40;2.77;;;1.83;;
20535;SDS011;10426;49.420;8.390;2022-07-06T02:07:07;2.03;;;1.50;;
20535;SDS011;10426;49.420;8.390;2022-07-06T02:09:34;2.88;;;1.70;;
20535;SDS011;10426;49.420;8.390;2022-07-06T02:12:02;1.60;;;1.50;;
20535;SDS011;10426;49.420;8.390;2022-07-06T02:14:29;1.63;;;1.53;;
20535;SDS011;10426;49.420;8.390;2022-07-06T02:16:55;4.07;;;1.60;;
20535;SDS011;10426;49.420;8.390;2022-07-06T02:19:22;3.17;;;1.90;;
20535;SDS011;10426;49.420;8.390;2022-07-06T02:21:49;2.63;;;1.80;;
20535;SDS011;10426;49.420;8.390;2022-07-06T02:24:15;2.90;;;1.70;;
20535;SDS011;10426;49.420;8.390;2022-07-06T02:26:42;2.70;;;1.60;;
20535;SDS011;10426;49.420;8.390;2022-07-06T02:29:10;2.08;;;1.58;;
20535;SDS011;10426;49.420;8.390;2022-07-06T02:31:37;1.75;;;1.60;;
20535;SDS011;10426;49.420;8.390;2022-07-06T02:34:03;1.88;;;1.70;;
20535;SDS011;10426;49.420;8.390;2022-07-06T02:36:30;2.05;;;1.58;;
20535;SDS011;10426;49.420;8.390;2022-07-06T02:38:57;1.73;;;1.60;;
20535;SDS011;10426;49.420;8.390;2022-07-06T02:41:23;2.67;;;1.67;;
20535;SDS011;10426;49.420;8.390;2022-07-06T02:43:50;2.38;;;1.83;;
20535;SDS011;10426;49.420;8.390;2022-07-06T02:46:18;2.72;;;1.60;;
20535;SDS011;10426;49.420;8.390;2022-07-06T02:48:45;3.30;;;1.52;;
20535;SDS011;10426;49.420;8.390;2022-07-06T02:51:11;2.05;;;1.80;;
20535;SDS011;10426;49.420;8.390;2022-07-06T02:53:38;2.78;;;1.52;;
20535;SDS011;10426;49.420;8.390;2022-07-06T02:56:05;1.65;;;1.50;;
20535;SDS011;10426;49.420;8.390;2022-07-06T02:58:31;4.10;;;1.70;;
20535;SDS011;10426;49.420;8.390;2022-07-06T03:00:58;1.67;;;1.40;;
20535;SDS011;10426;49.420;8.390;2022-07-06T03:03:26;2.70;;;1.60;;
20535;SDS011;10426;49.420;8.390;2022-07-06T03:05:53;2.97;;;1.60;;
20535;SDS011;10426;49.420;8.390;2022-07-06T03:08:20;1.75;;;1.65;;
20535;SDS011;10426;49.420;8.390;2022-07-06T03:10:46;3.55;;;1.65;;
20535;SDS011;10426;49.420;8.390;2022-07-06T03:13:13;2.35;;;1.60;;
20535;SDS011;10426;49.420;8.390;2022-07-06T03:15:40;1.63;;;1.52;;
20535;SDS011;10426;49.420;8.390;2022-07-06T03:18:07;1.63;;;1.48;;
20535;SDS011;10426;49.420;8.390;2022-07-06T03:20:35;2.30;;;1.50;;
20535;SDS011;10426;49.420;8.390;2022-07-06T03:23:02;2.97;;;1.48;;
20535;SDS011;10426;49.420;8.390;2022-07-06T03:25:28;2.35;;;1.50;;
20535;SDS011;10426;49.420;8.390;2022-07-06T03:27:55;1.50;;;1.40;;
20535;SDS011;10426;49.420;8.390;2022-07-06T03:30:22;2.45;;;1.50;;
20535;SDS011;10426;49.420;8.390;2022-07-06T03:32:49;5.10;;;1.70;;
20535;SDS011;10426;49.420;8.390;2022-07-06T03:35:15;1.65;;;1.52;;
20535;SDS011;10426;49.420;8.390;2022-07-06T03:37:44;1.70;;;1.60;;
20535;SDS011;10426;49.420;8.390;2022-07-06T03:40:11;1.58;;;1.48;;
20535;SDS011;10426;49.420;8.390;2022-07-06T03:42:37;2.60;;;1.60;;
20535;SDS011;10426;49.420;8.390;2022-07-06T03:45:04;1.67;;;1.57;;
20535;SDS011;10426;49.420;8.390;2022-07-06T03:47:31;2.37;;;1.60;;
20535;SDS011;10426;49.420;8.390;2022-07-06T03:49:58;2.97;;;1.85;;
20535;SDS011;10426;49.420;8.390;2022-07-06T03:52:25;3.20;;;1.85;;
20535;SDS011;10426;49.420;8.390;2022-07-06T03:54:53;2.35;;;1.45;;
20535;SDS011;10426;49.420;8.390;2022-07-06T03:57:20;3.97;;;1.50;;
20535;SDS011;10426;49.420;8.390;2022-07-06T03:59:47;2.38;;;1.70;;
20535;SDS011;10426;49.420;8.390;2022-07-06T04:02:13;1.50;;;1.40;;
20535;SDS011;10426;49.420;8.390;2022-07-06T04:04:40;1.80;;;1.57;;
20535;SDS011;10426;49.420;8.390;2022-07-06T04:07:07;2.20;;;1.60;;
20535;SDS011;10426;49.420;8.390;2022-07-06T04:09:33;1.67;;;1.38;;
20535;SDS011;10426;49.420;8.390;2022-07-06T04:12:05;2.35;;;1.58;;
20535;SDS011;10426;49.420;8.390;2022-07-06T04:14:31;2.05;;;1.52;;
20535;SDS011;10426;49.420;8.390;2022-07-06T04:17:00;1.88;;;1.70;;
20535;SDS011;10426;49.420;8.390;2022-07-06T04:19:47;1.60;;;1.50;;
20535;SDS011;10426;49.420;8.390;2022-07-06T04:22:14;1.50;;;1.40;;
20535;SDS011;10426;49.420;8.390;2022-07-06T04:24:41;2.55;;;1.50;;
20535;SDS011;10426;49.420;8.390;2022-07-06T04:27:09;1.90;;;1.55;;
20535;SDS011;10426;49.420;8.390;2022-07-06T04:29:36;2.80;;;1.80;;
20535;SDS011;10426;49.420;8.390;2022-07-06T04:32:02;1.95;;;1.85;;
20535;SDS011;10426;49.420;8.390;2022-07-06T04:34:29;5.30;;;1.75;;
20535;SDS011;10426;49.420;8.390;2022-07-06T04:36:56;2.70;;;1.70;;
20535;SDS011;10426;49.420;8.390;2022-07-06T04:39:23;3.72;;;1.70;;
20535;SDS011;10426;49.420;8.390;2022-07-06T04:41:49;4.25;;;1.88;;
20535;SDS011;10426;49.420;8.390;2022-07-06T04:44:18;3.83;;;1.60;;
20535;SDS011;10426;49.420;8.390;2022-07-06T04:46:44;2.13;;;1.80;;
20535;SDS011;10426;49.420;8.390;2022-07-06T04:49:11;3.05;;;1.77;;
20535;SDS011;10426;49.420;8.390;2022-07-06T04:51:38;1.83;;;1.67;;
20535;SDS011;10426;49.420;8.390;2022-07-06T04:54:04;2.30;;;1.65;;
20535;SDS011;10426;49.420;8.390;2022-07-06T04:56:31;3.38;;;1.80;;
20535;SDS011;10426;49.420;8.390;2022-07-06T04:58:58;2.25;;;1.70;;
20535;SDS011;10426;49.420;8.390;2022-07-06T05:01:26;3.90;;;1.90;;
20535;SDS011;10426;49.420;8.390;2022-07-06T05:03:53;1.77;;;1.60;;
20535;SDS011;10426;49.420;8.390;2022-07-06T05:06:19;2.60;;;1.70;;
20535;SDS011;10426;49.420;8.390;2022-07-06T05:08:46;6.18;;;1.70;;
20535;SDS011;10426;49.420;8.390;2022-07-06T05:11:13;3.13;;;1.90;;
20535;SDS011;10426;49.420;8.390;2022-07-06T05:13:39;2.40;;;1.70;;
20535;SDS011;10426;49.420;8.390;2022-07-06T05:16:06;2.85;;;1.65;;
20535;SDS011;10426;49.420;8.390;2022-07-06T05:18:34;1.50;;;1.40;;
20535;SDS011;10426;49.420;8.390;2022-07-06T05:21:01;2.75;;;1.50;;
20535;SDS011;10426;49.420;8.390;2022-07-06T05:23:27;2.80;;;1.60;;
20535;SDS011;10426;49.420;8.390;2022-07-06T05:25:54;3.78;;;1.58;;
20535;SDS011;10426;49.420;8.390;2022-07-06T05:28:20;3.35;;;1.95;;
20535;SDS011;10426;49.420;8.390;2022-07-06T05:30:47;1.92;;;1.73;;
20535;SDS011;10426;49.420;8.390;2022-07-06T05:33:14;3.17;;;1.70;;
20535;SDS011;10426;49.420;8.390;2022-07-06T05:35:42;3.80;;;1.80;;
20535;SDS011;10426;49.420;8.390;2022-07-06T05:38:09;3.85;;;1.80;;
20535;SDS011;10426;49.420;8.390;2022-07-06T05:40:36;2.80;;;1.65;;
20535;SDS011;10426;49.420;8.390;2022-07-06T05:43:02;1.80;;;1.70;;
20535;SDS011;10426;49.420;8.390;2022-07-06T05:45:29;4.10;;;1.83;;
20535;SDS011;10426;49.420;8.390;2022-07-06T05:47:56;4.63;;;1.70;;
20535;SDS011;10426;49.420;8.390;2022-07-06T05:50:40;3.00;;;1.80;;
20535;SDS011;10426;49.420;8.390;2022-07-06T05:53:08;2.97;;;1.80;;
20535;SDS011;10426;49.420;8.390;2022-07-06T05:55:34;4.15;;;1.92;;
20535;SDS011;10426;49.420;8.390;2022-07-06T05:58:01;4.18;;;1.85;;
20535;SDS011;10426;49.420;8.390;2022-07-06T06:00:28;3.00;;;1.60;;
20535;SDS011;10426;49.420;8.390;2022-07-06T06:02:55;2.20;;;1.60;;
20535;SDS011;10426;49.420;8.390;2022-07-06T06:05:22;3.85;;;1.60;;
20535;SDS011;10426;49.420;8.390;2022-07-06T06:07:48;6.22;;;1.85;;
20535;SDS011;10426;49.420;8.390;2022-07-06T06:10:18;1.95;;;1.65;;
20535;SDS011;10426;49.420;8.390;2022-07-06T06:12:45;4.10;;;1.90;;
20535;SDS011;10426;49.420;8.390;2022-07-06T06:15:11;2.10;;;1.75;;
20535;SDS011;10426;49.420;8.390;2022-07-06T06:17:38;4.67;;;1.97;;
20535;SDS011;10426;49.420;8.390;2022-07-06T06:20:06;1.83;;;1.70;;
20535;SDS011;10426;49.420;8.390;2022-07-06T06:22:43;6.18;;;2.17;;
20535;SDS011;10426;49.420;8.390;2022-07-06T06:25:10;4.43;;;1.70;;
20535;SDS011;10426;49.420;8.390;2022-07-06T06:27:37;1.80;;;1.70;;
20535;SDS011;10426;49.420;8.390;2022-07-06T06:30:05;2.90;;;1.70;;
20535;SDS011;10426;49.420;8.390;2022-07-06T06:32:31;1.97;;;1.73;;
20535;SDS011;10426;49.420;8.390;2022-07-06T06:34:58;4.72;;;1.90;;
20535;SDS011;10426;49.420;8.390;2022-07-06T06:37:25;4.20;;;1.73;;
20535;SDS011;10426;49.420;8.390;2022-07-06T06:39:52;2.20;;;1.70;;
20535;SDS011;10426;49.420;8.390;2022-07-06T06:42:18;4.03;;;1.98;;
20535;SDS011;10426;49.420;8.390;2022-07-06T06:44:46;3.80;;;1.83;;
20535;SDS011;10426;49.420;8.390;2022-07-06T06:47:13;3.10;;;1.92;;
20535;SDS011;10426;49.420;8.390;2022-07-06T06:49:40;2.97;;;2.00;;
20535;SDS011;10426;49.420;8.390;2022-07-06T06:52:06;1.83;;;1.73;;
20535;SDS011;10426;49.420;8.390;2022-07-06T06:54:33;3.55;;;1.80;;
20535;SDS011;10426;49.420;8.390;2022-07-06T06:56:59;2.67;;;1.88;;
20535;SDS011;10426;49.420;8.390;2022-07-06T06:59:26;2.63;;;2.20;;
20535;SDS011;10426;49.420;8.390;2022-07-06T07:01:54;3.33;;;1.80;;
20535;SDS011;10426;49.420;8.390;2022-07-06T07:04:21;4.53;;;1.95;;
20535;SDS011;10426;49.420;8.390;2022-07-06T07:06:47;2.72;;;1.75;;
20535;SDS011;10426;49.420;8.390;2022-07-06T07:09:14;3.67;;;1.98;;
20535;SDS011;10426;49.420;8.390;2022-07-06T07:11:41;2.25;;;1.80;;
20535;SDS011;10426;49.420;8.390;2022-07-06T07:14:07;3.13;;;1.95;;
20535;SDS011;10426;49.420;8.390;2022-07-06T07:16:34;2.20;;;1.80;;
20535;SDS011;10426;49.420;8.390;2022-07-06T07:19:02;4.60;;;1.70;;
20535;SDS011;10426;49.420;8.390;2022-07-06T07:21:28;3.40;;;1.90;;
20535;SDS011;10426;49.420;8.390;2022-07-06T07:23:55;5.82;;;2.25;;
20535;SDS011;10426;49.420;8.390;2022-07-06T07:26:22;2.33;;;1.95;;
20535;SDS011;10426;49.420;8.390;2022-07-06T07:28:48;2.92;;;1.90;;
20535;SDS011;10426;49.420;8.390;2022-07-06T07:31:15;2.58;;;1.70;;
20535;SDS011;10426;49.420;8.390;2022-07-06T07:33:42;3.20;;;1.98;;
20535;SDS011;10426;49.420;8.390;2022-07-06T07:36:10;3.28;;;2.00;;
20535;SDS011;10426;49.420;8.390;2022-07-06T07:38:37;4.00;;;1.70;;
20535;SDS011;10426;49.420;8.390;2022-07-06T07:41:03;2.00;;;1.80;;
20535;SDS011;10426;49.420;8.390;2022-07-06T07:43:31;3.03;;;1.70;;
20535;SDS011;10426;49.420;8.390;2022-07-06T07:45:58;3.30;;;1.92;;
20535;SDS011;10426;49.420;8.390;2022-07-06T07:48:24;5.90;;;2.22;;
20535;SDS011;10426;49.420;8.390;2022-07-06T07:50:51;3.47;;;1.67;;
20535;SDS011;10426;49.420;8.390;2022-07-06T07:53:19;3.72;;;1.88;;
20535;SDS011;10426;49.420;8.390;2022-07-06T07:55:46;2.65;;;1.70;;
20535;SDS011;10426;49.420;8.390;2022-07-06T07:58:12;2.97;;;1.80;;
20535;SDS011;10426;49.420;8.390;2022-07-06T08:00:39;3.60;;;1.80;;
20535;SDS011;10426;49.420;8.390;2022-07-06T08:03:06;4.40;;;2.08;;
20535;SDS011;10426;49.420;8.390;2022-07-06T08:05:32;3.13;;;1.73;;
20535;SDS011;10426;49.420;8.390;2022-07-06T08:07:59;2.63;;;1.70;;
20535;SDS011;10426;49.420;8.390;2022-07-06T08:10:27;2.20;;;1.80;;
20535;SDS011;10426;49.420;8.390;2022-07-06T08:12:54;4.88;;;1.90;;
20535;SDS011;10426;49.420;8.390;2022-07-06T08:15:21;2.90;;;1.58;;
20535;SDS011;10426;49.420;8.390;2022-07-06T08:17:47;3.15;;;1.80;;
20535;SDS011;10426;49.420;8.390;2022-07-06T08:20:14;1.67;;;1.40;;
20535;SDS011;10426;49.420;8.390;2022-07-06T08:22:41;2.75;;;1.50;;
20535;SDS011;10426;49.420;8.390;2022-07-06T08:25:08;3.50;;;1.50;;
20535;SDS011;10426;49.420;8.390;2022-07-06T08:27:36;2.65;;;1.60;;
20535;SDS011;10426;49.420;8.390;2022-07-06T08:30:03;3.75;;;1.70;;
20535;SDS011;10426;49.420;8.390;2022-07-06T08:32:30;2.38;;;1.58;;
20535;SDS011;10426;49.420;8.390;2022-07-06T08:34:57;2.75;;;1.40;;
20535;SDS011;10426;49.420;8.390;2022-07-06T08:37:23;1.87;;;1.70;;
20535;SDS011;10426;49.420;8.390;2022-07-06T08:39:50;3.25;;;1.70;;
20535;SDS011;10426;49.420;8.390;2022-07-06T08:42:17;2.22;;;1.45;;
20535;SDS011;10426;49.420;8.390;2022-07-06T08:44:46;2.92;;;1.50;;
20535;SDS011;10426;49.420;8.390;2022-07-06T08:47:13;1.75;;;1.50;;
20535;SDS011;10426;49.420;8.390;2022-07-06T08:49:40;2.85;;;1.65;;
20535;SDS011;10426;49.420;8.390;2022-07-06T08:52:08;1.92;;;1.42;;
20535;SDS011;10426;49.420;8.390;2022-07-06T08:54:34;2.92;;;1.67;;
20535;SDS011;10426;49.420;8.390;2022-07-06T08:57:02;3.30;;;1.70;;
20535;SDS011;10426;49.420;8.390;2022-07-06T08:59:28;2.42;;;1.50;;
20535;SDS011;10426;49.420;8.390;2022-07-06T09:01:56;1.67;;;1.57;;
20535;SDS011;10426;49.420;8.390;2022-07-06T09:04:25;1.92;;;1.55;;
20535;SDS011;10426;49.420;8.390;2022-07-06T09:06:52;2.60;;;1.50;;
20535;SDS011;10426;49.420;8.390;2022-07-06T09:09:21;3.67;;;1.80;;
20535;SDS011;10426;49.420;8.390;2022-07-06T09:11:49;3.83;;;1.65;;
20535;SDS011;10426;49.420;8.390;2022-07-06T09:14:16;2.60;;;1.70;;
20535;SDS011;10426;49.420;8.390;2022-07-06T09:16:44;2.08;;;1.88;;
20535;SDS011;10426;49.420;8.390;2022-07-06T09:19:12;2.60;;;1.58;;
20535;SDS011;10426;49.420;8.390;2022-07-06T09:21:40;3.08;;;1.58;;
20535;SDS011;10426;49.420;8.390;2022-07-06T09:24:08;2.83;;;1.60;;
20535;SDS011;10426;49.420;8.390;2022-07-06T09:26:35;3.28;;;1.50;;
20535;SDS011;10426;49.420;8.390;2022-07-06T09:29:02;2.72;;;1.60;;
20535;SDS011;10426;49.420;8.390;2022-07-06T09:31:30;1.67;;;1.50;;
20535;SDS011;10426;49.420;8.390;2022-07-06T09:33:57;1.43;;;1.33;;
20535;SDS011;10426;49.420;8.390;2022-07-06T09:36:43;2.75;;;1.60;;
20535;SDS011;10426;49.420;8.390;2022-07-06T09:39:16;2.25;;;1.52;;
20535;SDS011;10426;49.420;8.390;2022-07-06T09:41:43;2.50;;;1.60;;
20535;SDS011;10426;49.420;8.390;2022-07-06T09:44:10;4.10;;;1.80;;
20535;SDS011;10426;49.420;8.390;2022-07-06T09:46:37;3.97;;;1.60;;
20535;SDS011;10426;49.420;8.390;2022-07-06T09:49:04;1.63;;;1.50;;
20535;SDS011;10426;49.420;8.390;2022-07-06T09:51:34;1.83;;;1.45;;
20535;SDS011;10426;49.420;8.390;2022-07-06T09:54:05;3.67;;;1.60;;
20535;SDS011;10426;49.420;8.390;2022-07-06T09:56:35;3.00;;;1.60;;
20535;SDS011;10426;49.420;8.390;2022-07-06T09:59:04;3.20;;;1.80;;
20535;SDS011;10426;49.420;8.390;2022-07-06T10:01:31;2.83;;;1.90;;
20535;SDS011;10426;49.420;8.390;2022-07-06T10:03:58;2.55;;;1.50;;
20535;SDS011;10426;49.420;8.390;2022-07-06T10:06:25;2.50;;;1.50;;
20535;SDS011;10426;49.420;8.390;2022-07-06T10:08:51;1.92;;;1.50;;
20535;SDS011;10426;49.420;8.390;2022-07-06T10:11:21;3.17;;;1.50;;
20535;SDS011;10426;49.420;8.390;2022-07-06T10:13:48;1.92;;;1.40;;
20535;SDS011;10426;49.420;8.390;2022-07-06T10:16:16;3.33;;;1.40;;
20535;SDS011;10426;49.420;8.390;2022-07-06T10:18:43;2.28;;;1.60;;
20535;SDS011;10426;49.420;8.390;2022-07-06T10:21:10;1.73;;;1.58;;
20535;SDS011;10426;49.420;8.390;2022-07-06T10:23:37;3.50;;;1.40;;
20535;SDS011;10426;49.420;8.390;2022-07-06T10:26:05;2.65;;;1.42;;
20535;SDS011;10426;49.420;8.390;2022-07-06T10:28:34;3.95;;;1.42;;
20535;SDS011;10426;49.420;8.390;2022-07-06T10:31:00;2.15;;;1.45;;
20535;SDS011;10426;49.420;8.390;2022-07-06T10:33:28;1.60;;;1.50;;
20535;SDS011;10426;49.420;8.390;2022-07-06T10:35:55;2.78;;;1.40;;
20535;SDS011;10426;49.420;8.390;2022-07-06T10:38:25;1.90;;;1.50;;
20535;SDS011;10426;49.420;8.390;2022-07-06T10:40:58;2.97;;;1.40;;
20535;SDS011;10426;49.420;8.390;2022-07-06T10:43:34;2.63;;;1.45;;
20535;SDS011;10426;49.420;8.390;2022-07-06T10:46:05;2.17;;;1.50;;
20535;SDS011;10426;49.420;8.390;2022-07-06T10:48:34;1.88;;;1.48;;
20535;SDS011;10426;49.420;8.390;2022-07-06T10:51:01;1.40;;;1.30;;
20535;SDS011;10426;49.420;8.390;2022-07-06T10:53:30;1.50;;;1.20;;
20535;SDS011;10426;49.420;8.390;2022-07-06T10:55:58;3.70;;;1.30;;
20535;SDS011;10426;49.420;8.390;2022-07-06T10:58:36;2.50;;;1.20;;
20535;SDS011;10426;49.420;8.390;2022-07-06T11:01:03;1.30;;;1.20;;
20535;SDS011;10426;49.420;8.390;2022-07-06T11:03:32;2.30;;;1.40;;
20535;SDS011;10426;49.420;8.390;2022-07-06T11:05:59;2.10;;;1.13;;
20535;SDS011;10426;49.420;8.390;2022-07-06T11:08:40;4.57;;;1.40;;
20535;SDS011;10426;49.420;8.390;2022-07-06T11:11:10;2.60;;;1.20;;
20535;SDS011;10426;49.420;8.390;2022-07-06T11:13:43;1.55;;;1.20;;
20535;SDS011;10426;49.420;8.390;2022-07-06T11:16:09;1.50;;;1.40;;
20535;SDS011;10426;49.420;8.390;2022-07-06T11:18:39;2.63;;;1.20;;
20535;SDS011;10426;49.420;8.390;2022-07-06T11:21:16;2.85;;;1.20;;
20535;SDS011;10426;49.420;8.390;2022-07-06T11:23:42;1.48;;;1.17;;
20535;SDS011;10426;49.420;8.390;2022-07-06T11:26:09;2.22;;;1.20;;
20535;SDS011;10426;49.420;8.390;2022-07-06T11:28:36;2.10;;;1.15;;
20535;SDS011;10426;49.420;8.390;2022-07-06T11:31:05;1.95;;;1.20;;
20535;SDS011;10426;49.420;8.390;2022-07-06T11:33:32;1.52;;;1.30;;
20535;SDS011;10426;49.420;8.390;2022-07-06T11:36:12;1.50;;;1.30;;
20535;SDS011;10426;49.420;8.390;2022-07-06T11:38:38;1.90;;;1.23;;
20535;SDS011;10426;49.420;8.390;2022-07-06T11:41:05;3.53;;;1.33;;
20535;SDS011;10426;49.420;8.390;2022-07-06T11:43:32;4.10;;;1.33;;
20535;SDS011;10426;49.420;8.390;2022-07-06T11:45:59;2.90;;;1.30;;
20535;SDS011;10426;49.420;8.390;2022-07-06T11:48:27;1.27;;;1.10;;
20535;SDS011;10426;49.420;8.390;2022-07-06T11:50:57;1.40;;;1.20;;
20535;SDS011;10426;49.420;8.390;2022-07-06T11:53:24;2.90;;;1.25;;
20535;SDS011;10426;49.420;8.390;2022-07-06T11:55:51;1.50;;;1.10;;
20535;SDS011;10426;49.420;8.390;2022-07-06T11:58:18;1.27;;;1.17;;
20535;SDS011;10426;49.420;8.390;2022-07-06T12:03:30;2.05;;;1.23;;
20535;SDS011;10426;49.420;8.390;2022-07-06T12:05:58;1.13;;;1.13;;
20535;SDS011;10426;49.420;8.390;2022-07-06T12:08:24;1.23;;;1.20;;
20535;SDS011;10426;49.420;8.390;2022-07-06T12:10:51;2.70;;;1.60;;
20535;SDS011;10426;49.420;8.390;2022-07-06T12:13:19;1.70;;;1.20;;
20535;SDS011;10426;49.420;8.390;2022-07-06T12:15:46;1.70;;;1.10;;
20535;SDS011;10426;49.420;8.390;2022-07-06T12:18:12;1.63;;;1.10;;
20535;SDS011;10426;49.420;8.390;2022-07-06T12:20:40;2.13;;;1.20;;
20535;SDS011;10426;49.420;8.390;2022-07-06T12:23:07;1.50;;;1.40;;
20535;SDS011;10426;49.420;8.390;2022-07-06T12:25:35;1.60;;;1.30;;
20535;SDS011;10426;49.420;8.390;2022-07-06T12:28:02;1.60;;;1.48;;
20535;SDS011;10426;49.420;8.390;2022-07-06T12:30:29;1.60;;;1.40;;
20535;SDS011;10426;49.420;8.390;2022-07-06T12:33:11;2.58;;;1.25;;
20535;SDS011;10426;49.420;8.390;2022-07-06T12:35:38;2.20;;;1.25;;
20535;SDS011;10426;49.420;8.390;2022-07-06T12:38:06;1.20;;;1.20;;
20535;SDS011;10426;49.420;8.390;2022-07-06T12:40:34;1.20;;;1.20;;
20535;SDS011;10426;49.420;8.390;2022-07-06T12:43:01;3.10;;;1.20;;
20535;SDS011;10426;49.420;8.390;2022-07-06T12:45:28;1.10;;;1.10;;
20535;SDS011;10426;49.420;8.390;2022-07-06T12:47:59;1.83;;;1.30;;
20535;SDS011;10426;49.420;8.390;2022-07-06T12:50:32;1.27;;;1.20;;
20535;SDS011;10426;49.420;8.390;2022-07-06T12:52:59;1.10;;;1.10;;
20535;SDS011;10426;49.420;8.390;2022-07-06T12:55:27;1.60;;;1.40;;
20535;SDS011;10426;49.420;8.390;2022-07-06T12:57:54;3.97;;;1.60;;
20535;SDS011;10426;49.420;8.390;2022-07-06T13:00:21;1.50;;;1.40;;
20535;SDS011;10426;49.420;8.390;2022-07-06T13:02:50;2.10;;;1.52;;
20535;SDS011;10426;49.420;8.390;2022-07-06T13:05:24;2.40;;;1.50;;
20535;SDS011;10426;49.420;8.390;2022-07-06T13:07:53;1.55;;;1.45;;
20535;SDS011;10426;49.420;8.390;2022-07-06T13:10:21;1.58;;;1.48;;
20535;SDS011;10426;49.420;8.390;2022-07-06T13:12:49;1.63;;;1.52;;
20535;SDS011;10426;49.420;8.390;2022-07-06T13:15:16;2.50;;;1.60;;
20535;SDS011;10426;49.420;8.390;2022-07-06T13:17:42;2.38;;;1.80;;
20535;SDS011;10426;49.420;8.390;2022-07-06T13:20:11;2.30;;;1.70;;
20535;SDS011;10426;49.420;8.390;2022-07-06T13:22:38;2.10;;;1.90;;
20535;SDS011;10426;49.420;8.390;2022-07-06T13:25:05;1.70;;;1.60;;
20535;SDS011;10426;49.420;8.390;2022-07-06T13:27:32;4.18;;;1.70;;
20535;SDS011;10426;49.420;8.390;2022-07-06T13:30:00;2.50;;;1.80;;
20535;SDS011;10426;49.420;8.390;2022-07-06T13:32:27;2.07;;;1.70;;
20535;SDS011;10426;49.420;8.390;2022-07-06T13:34:54;1.90;;;1.80;;
20535;SDS011;10426;49.420;8.390;2022-07-06T13:37:20;2.30;;;1.70;;
20535;SDS011;10426;49.420;8.390;2022-07-06T13:39:47;1.65;;;1.65;;
20535;SDS011;10426;49.420;8.390;2022-07-06T13:42:14;2.17;;;1.98;;
20535;SDS011;10426;49.420;8.390;2022-07-06T13:44:41;3.38;;;1.90;;
20535;SDS011;10426;49.420;8.390;2022-07-06T13:47:09;1.80;;;1.70;;
20535;SDS011;10426;49.420;8.390;2022-07-06T13:49:36;2.85;;;1.75;;
20535;SDS011;10426;49.420;8.390;2022-07-06T13:52:03;4.00;;;1.80;;
20535;SDS011;10426;49.420;8.390;2022-07-06T13:54:29;2.15;;;2.00;;
20535;SDS011;10426;49.420;8.390;2022-07-06T13:56:56;1.80;;;1.70;;
20535;SDS011;10426;49.420;8.390;2022-07-06T13:59:23;2.10;;;1.88;;
20535;SDS011;10426;49.420;8.390;2022-07-06T14:01:49;2.58;;;1.80;;
20535;SDS011;10426;49.420;8.390;2022-07-06T14:04:18;1.85;;;1.75;;
20535;SDS011;10426;49.420;8.390;2022-07-06T14:06:44;1.73;;;1.63;;
20535;SDS011;10426;49.420;8.390;2022-07-06T14:09:11;1.90;;;1.80;;
20535;SDS011;10426;49.420;8.390;2022-07-06T14:11:38;1.70;;;1.60;;
20535;SDS011;10426;49.420;8.390;2022-07-06T14:14:04;1.65;;;1.55;;
20535;SDS011;10426;49.420;8.390;2022-07-06T14:16:32;1.70;;;1.60;;
20535;SDS011;10426;49.420;8.390;2022-07-06T14:19:00;1.70;;;1.60;;
20535;SDS011;10426;49.420;8.390;2022-07-06T14:21:29;1.75;;;1.65;;
20535;SDS011;10426;49.420;8.390;2022-07-06T14:23:56;1.70;;;1.60;;
20535;SDS011;10426;49.420;8.390;2022-07-06T14:26:22;1.50;;;1.40;;
20535;SDS011;10426;49.420;8.390;2022-07-06T14:28:49;1.80;;;1.70;;
20535;SDS011;10426;49.420;8.390;2022-07-06T14:31:16;1.70;;;1.60;;
20535;SDS011;10426;49.420;8.390;2022-07-06T14:33:42;1.40;;;1.30;;
20535;SDS011;10426;49.420;8.390;2022-07-06T14:36:09;1.60;;;1.50;;
20535;SDS011;10426;49.420;8.390;2022-07-06T14:38:37;3.50;;;1.50;;
20535;SDS011;10426;49.420;8.390;2022-07-06T14:41:04;1.92;;;1.50;;
20535;SDS011;10426;49.420;8.390;2022-07-06T14:43:30;1.60;;;1.50;;
20535;SDS011;10426;49.420;8.390;2022-07-06T14:45:57;1.60;;;1.50;;
20535;SDS011;10426;49.420;8.390;2022-07-06T14:48:24;1.52;;;1.40;;
20535;SDS011;10426;49.420;8.390;2022-07-06T14:50:50;1.45;;;1.35;;
20535;SDS011;10426;49.420;8.390;2022-07-06T14:53:18;1.42;;;1.33;;